aviador You're here:

OIMQ Decoded Metar

KASHMAR in IRAN
Report Time2017-09-23 08:00:00
UTC Time2017-09-23 09:10:42
Flight Rules Old
Wind250° at 04 kt
W.Rank250° ranks 17
Current wind is below 250° avg. (6.7)
Visibility9999 m
Phenomena:N/A
Clouds:N/A
Expected CloudBase > 12,000 ft AGL from Temp-Dew spread
CeilingNone
Temp27°C
Dew Point-3°C (14% RH)
Heat Index25.9°C
AAT23.2°C
QNH1018 hPa
Raw Report
METAR OIMQ 230800Z 25004KT CAVOK 27/M03 Q1018=

Extra information for OIMQ:More info

Metar Taf Metar & Taf Last 4 Metars F.Rules Stats Wind Profile Meteogram Temp Stats Metar ALERT Operation Metar Decoded Social comments